Time;durP1;ratioP1;P1;durP2;ratioP2;P2;SDS_P1;SDS_P2;PMS_P1;PMS_P2;Temp;Humidity;BMP_temperature;BMP_pressure;BME280_temperature;BME280_humidity;BME280_pressure;Samples;Min_cycle;Max_cycle;Signal;HPM_P1;HPM_P2
2022/01/12 00:01:43;;;;;;;6.67;6.00;;;2.20;99.90;;;;;;5074327;28;21009;-62
2022/01/12 00:04:11;;;;;;;8.63;6.40;;;2.30;99.90;;;;;;5074167;28;20456;-64
2022/01/12 00:06:39;;;;;;;9.37;8.47;;;2.20;99.90;;;;;;5074271;28;20484;-63
2022/01/12 00:09:07;;;;;;;7.60;6.90;;;2.10;99.90;;;;;;5074513;28;20543;-63
2022/01/12 00:11:35;;;;;;;7.20;6.03;;;2.20;99.90;;;;;;5073982;28;20867;-62
2022/01/12 00:14:02;;;;;;;8.60;6.57;;;2.20;99.90;;;;;;5074226;28;20467;-62
2022/01/12 00:16:31;;;;;;;10.10;6.00;;;2.20;99.90;;;;;;5073912;28;20472;-63
2022/01/12 00:18:58;;;;;;;7.07;6.17;;;2.10;99.90;;;;;;5074179;28;20437;-62
2022/01/12 00:21:26;;;;;;;6.10;5.50;;;2.10;99.90;;;;;;5073685;28;20515;-63
2022/01/12 00:23:53;;;;;;;9.50;6.80;;;1.90;99.90;;;;;;5074125;28;20537;-62
2022/01/12 00:26:40;;;;;;;6.63;5.93;;;1.90;99.90;;;;;;5073695;28;20480;-62
2022/01/12 00:34:38;;;;;;;7.87;6.47;;;1.90;99.90;;;;;;5073145;28;20409;-62
2022/01/12 00:37:05;;;;;;;9.50;6.37;;;1.90;99.90;;;;;;5073502;28;20448;-62
2022/01/12 00:39:32;;;;;;;9.70;7.20;;;1.80;99.90;;;;;;5073805;28;20441;-62
2022/01/12 00:41:59;;;;;;;6.70;6.00;;;1.80;99.90;;;;;;5073552;28;20475;-62
2022/01/12 00:44:32;;;;;;;7.93;6.80;;;1.80;99.90;;;;;;5073390;28;20939;-62
2022/01/12 00:47:01;;;;;;;10.03;6.60;;;1.80;99.90;;;;;;5073355;28;20583;-62
2022/01/12 00:49:28;;;;;;;10.27;6.67;;;1.80;99.90;;;;;;5073815;28;20432;-63
2022/01/12 00:51:55;;;;;;;8.80;6.77;;;1.70;99.90;;;;;;5073472;28;20468;-62
2022/01/12 00:54:25;;;;;;;7.63;6.43;;;1.80;99.90;;;;;;5073276;28;20927;-62
2022/01/12 00:56:52;;;;;;;8.33;7.20;;;1.80;99.90;;;;;;5073363;28;20444;-62
2022/01/12 00:59:19;;;;;;;7.23;6.10;;;1.80;99.90;;;;;;5073498;28;20451;-62
2022/01/12 01:01:47;;;;;;;7.10;6.30;;;1.70;99.90;;;;;;5073492;28;20506;-62
2022/01/12 01:04:15;;;;;;;10.97;7.80;;;1.80;99.90;;;;;;5073571;28;20470;-62
2022/01/12 01:06:43;;;;;;;7.90;7.20;;;1.60;99.90;;;;;;5073438;28;20491;-62
2022/01/12 01:09:10;;;;;;;8.33;6.03;;;1.60;99.90;;;;;;5073037;28;21045;-62
2022/01/12 01:11:37;;;;;;;7.33;6.63;;;1.70;99.90;;;;;;5073310;28;20804;-62
2022/01/12 01:14:14;;;;;;;8.43;7.17;;;1.70;99.90;;;;;;5073450;28;20444;-62
2022/01/12 01:17:03;;;;;;;7.57;6.63;;;1.70;99.90;;;;;;5072003;28;20906;-62
2022/01/12 01:27:45;;;;;;;6.97;6.27;;;1.50;99.90;;;;;;5073017;28;20447;-62
2022/01/12 01:30:12;;;;;;;7.17;6.47;;;1.40;99.90;;;;;;5072793;28;20451;-62
2022/01/12 01:32:41;;;;;;;8.60;6.80;;;1.50;99.90;;;;;;5073447;28;20448;-62
2022/01/12 01:35:10;;;;;;;7.30;6.67;;;1.50;99.90;;;;;;5072950;28;20494;-62
2022/01/12 01:37:40;;;;;;;8.07;7.30;;;1.50;99.90;;;;;;5073063;28;20459;-62
2022/01/12 01:40:08;;;;;;;6.93;6.23;;;1.50;99.90;;;;;;5072672;28;20444;-62
2022/01/12 01:42:53;;;;;;;6.70;6.10;;;1.40;99.90;;;;;;5072846;28;20459;-62
2022/01/12 01:53:38;;;;;;;6.53;5.70;;;1.50;99.90;;;;;;5077020;28;20795;-62
2022/01/12 01:56:07;;;;;;;7.00;5.63;;;1.40;99.90;;;;;;5076573;28;20436;-61
2022/01/12 01:58:34;;;;;;;6.40;5.80;;;1.50;99.90;;;;;;5076801;28;20447;-62
2022/01/12 02:01:02;;;;;;;7.40;6.10;;;1.40;99.90;;;;;;5076861;28;20460;-62
2022/01/12 02:03:30;;;;;;;8.60;6.57;;;1.30;99.90;;;;;;5076692;28;20440;-62
2022/01/12 02:05:59;;;;;;;5.97;5.47;;;1.20;99.90;;;;;;5076599;28;20491;-62
2022/01/12 02:08:27;;;;;;;8.37;6.80;;;1.30;99.90;;;;;;5076367;28;20451;-62
2022/01/12 02:10:54;;;;;;;6.70;5.90;;;1.20;99.90;;;;;;5076368;28;20552;-62
2022/01/12 02:13:22;;;;;;;7.57;6.00;;;1.20;99.90;;;;;;5076468;28;20811;-62
2022/01/12 02:15:50;;;;;;;9.17;7.20;;;1.20;99.90;;;;;;5076217;28;20436;-62
2022/01/12 02:18:21;;;;;;;9.83;8.83;;;1.20;99.90;;;;;;5076613;28;20959;-62
2022/01/12 02:40:19;;;;;;;7.03;6.23;;;1.30;99.90;;;;;;5054672;28;20420;-62
2022/01/12 02:42:55;;;;;;;8.33;7.33;;;1.10;99.90;;;;;;5075709;28;20444;-62
2022/01/12 02:51:07;;;;;;;8.70;7.17;;;1.00;99.90;;;;;;5075535;28;20435;-62
2022/01/12 02:53:39;;;;;;;12.90;7.40;;;1.20;99.90;;;;;;5075882;28;20468;-62
2022/01/12 02:56:06;;;;;;;8.40;7.20;;;1.20;99.90;;;;;;5075570;28;20427;-62
2022/01/12 02:58:34;;;;;;;9.40;6.53;;;1.10;99.90;;;;;;5074897;28;20448;-62
2022/01/12 03:03:48;;;;;;;7.60;6.90;;;1.00;99.90;;;;;;5074982;28;20440;-62
2022/01/12 03:06:18;;;;;;;10.30;7.40;;;1.00;99.90;;;;;;5075500;28;20492;-62
2022/01/12 03:08:47;;;;;;;12.43;6.50;;;1.00;99.90;;;;;;5075752;28;20476;-62
2022/01/12 03:11:16;;;;;;;8.27;6.60;;;0.90;99.90;;;;;;5075429;28;20475;-62
2022/01/12 03:13:48;;;;;;;7.17;6.47;;;0.90;99.90;;;;;;5075255;28;20424;-62
2022/01/12 03:16:17;;;;;;;10.93;6.97;;;1.00;99.90;;;;;;5074931;28;20563;-62
2022/01/12 03:18:45;;;;;;;8.33;6.43;;;1.10;99.90;;;;;;5075654;28;20842;-62
2022/01/12 03:21:14;;;;;;;6.97;6.27;;;1.10;99.90;;;;;;5075193;28;20468;-62
2022/01/12 03:23:42;;;;;;;8.20;6.57;;;1.10;99.90;;;;;;5075368;28;20814;-62
2022/01/12 03:26:11;;;;;;;9.90;7.50;;;1.00;99.90;;;;;;5074961;28;20490;-62
2022/01/12 03:28:39;;;;;;;8.10;6.53;;;0.90;99.90;;;;;;5074922;28;20531;-62
2022/01/12 03:31:10;;;;;;;8.13;7.33;;;1.00;99.90;;;;;;5074708;28;20468;-62
2022/01/12 03:33:54;;;;;;;9.30;7.53;;;1.10;99.90;;;;;;5074936;28;20562;-62
2022/01/12 04:09:25;;;;;;;9.40;6.60;;;0.90;99.90;;;;;;5074138;28;20458;-62
2022/01/12 04:11:52;;;;;;;9.47;7.80;;;0.80;99.90;;;;;;5074345;28;20465;-62
2022/01/12 04:14:19;;;;;;;9.30;8.30;;;0.80;99.90;;;;;;5074192;28;20444;-62
2022/01/12 04:16:46;;;;;;;12.40;8.33;;;0.70;99.90;;;;;;5073677;28;20991;-62
2022/01/12 04:19:13;;;;;;;8.23;7.43;;;0.60;99.90;;;;;;5074262;28;20433;-62
2022/01/12 04:21:46;;;;;;;9.23;7.87;;;0.80;99.90;;;;;;5073597;28;20469;-62
2022/01/12 04:24:14;;;;;;;8.77;7.30;;;0.80;99.90;;;;;;5073770;28;20792;-62
2022/01/12 04:26:42;;;;;;;15.00;7.43;;;0.80;99.90;;;;;;5074044;28;20484;-62
2022/01/12 04:29:09;;;;;;;10.93;7.90;;;0.60;99.90;;;;;;5073644;28;20535;-62
2022/01/12 04:31:37;;;;;;;12.70;8.00;;;0.70;99.90;;;;;;5073833;28;20471;-63
2022/01/12 04:34:05;;;;;;;10.10;7.47;;;0.80;99.90;;;;;;5074030;28;20444;-62
2022/01/12 04:36:32;;;;;;;10.67;8.40;;;0.90;99.90;;;;;;5073805;28;20440;-62
2022/01/12 04:39:01;;;;;;;8.50;7.60;;;1.00;99.90;;;;;;5073468;28;20915;-62
2022/01/12 04:41:28;;;;;;;12.07;7.80;;;0.90;99.90;;;;;;5073476;28;20478;-62
2022/01/12 04:43:56;;;;;;;9.60;7.57;;;0.90;99.90;;;;;;5073672;28;20798;-62
2022/01/12 04:49:21;;;;;;;8.97;7.63;;;0.80;99.90;;;;;;5073738;28;20396;-62
2022/01/12 04:51:49;;;;;;;10.23;8.40;;;0.80;99.90;;;;;;5073482;28;20468;-62
2022/01/12 04:54:17;;;;;;;8.03;7.23;;;0.50;99.90;;;;;;5073729;28;20440;-62
2022/01/12 04:56:44;;;;;;;10.00;7.87;;;0.60;99.90;;;;;;5073193;28;20472;-62
2022/01/12 04:59:12;;;;;;;10.33;8.30;;;0.60;99.90;;;;;;5073447;28;20441;-62
2022/01/12 05:01:49;;;;;;;12.57;8.90;;;0.80;99.90;;;;;;5073733;28;20530;-62
2022/01/12 05:07:23;;;;;;;9.57;7.60;;;0.60;99.90;;;;;;5073294;28;20822;-62
2022/01/12 05:12:47;;;;;;;9.87;8.87;;;0.60;99.90;;;;;;5073511;28;20481;-62
2022/01/12 05:12:52;;;;;;;10.67;7.77;;;0.60;99.90;;;;;;5073070;28;20425;-62
2022/01/12 05:15:27;;;;;;;9.87;8.87;;;0.60;99.90;;;;;;5073457;28;20427;-62
2022/01/12 05:17:55;;;;;;;11.63;8.90;;;0.60;99.90;;;;;;5073210;28;20479;-62
2022/01/12 05:20:22;;;;;;;8.60;7.80;;;0.60;99.90;;;;;;5072757;28;20454;-62
2022/01/12 05:22:50;;;;;;;10.67;7.80;;;0.40;99.90;;;;;;5073052;28;20455;-62
2022/01/12 05:25:19;;;;;;;11.40;9.27;;;0.50;99.90;;;;;;5073052;28;21018;-62
2022/01/12 05:27:47;;;;;;;9.50;8.00;;;0.50;99.90;;;;;;5072830;28;20991;-62
2022/01/12 05:30:14;;;;;;;10.03;8.60;;;0.60;99.90;;;;;;5073033;28;20451;-62
2022/01/12 05:32:42;;;;;;;9.07;8.17;;;0.40;99.90;;;;;;5072863;28;20555;-62
2022/01/12 05:35:12;;;;;;;9.07;8.10;;;0.30;99.90;;;;;;5073079;28;20874;-62
2022/01/12 05:37:39;;;;;;;14.80;9.30;;;0.30;99.90;;;;;;5072761;28;20448;-62
2022/01/12 05:40:08;;;;;;;13.50;9.30;;;0.40;99.90;;;;;;5072930;28;20454;-62
2022/01/12 05:42:37;;;;;;;10.27;9.00;;;0.50;99.90;;;;;;5072634;28;20923;-62
2022/01/12 05:45:06;;;;;;;9.93;8.80;;;0.50;99.90;;;;;;5072983;28;20525;-62
2022/01/12 05:50:15;;;;;;;11.20;10.03;;;0.40;99.90;;;;;;5049712;28;20424;-62
2022/01/12 05:52:42;;;;;;;13.37;10.77;;;0.60;99.90;;;;;;5072992;28;20455;-62
2022/01/12 05:55:11;;;;;;;13.87;10.43;;;0.50;99.90;;;;;;5072834;28;20432;-62
2022/01/12 05:57:40;;;;;;;11.20;9.97;;;0.60;99.90;;;;;;5072704;28;20520;-62
2022/01/12 06:00:09;;;;;;;11.67;10.00;;;0.50;99.90;;;;;;5072411;28;20915;-62
2022/01/12 06:02:37;;;;;;;11.60;9.83;;;0.60;99.90;;;;;;5072681;28;20444;-62
2022/01/12 06:05:05;;;;;;;14.63;11.00;;;0.80;99.90;;;;;;5072489;28;20440;-62
2022/01/12 06:07:32;;;;;;;10.80;9.70;;;0.80;99.90;;;;;;5072736;28;20476;-62
2022/01/12 06:09:59;;;;;;;13.87;11.63;;;0.80;99.90;;;;;;5072328;28;20451;-62
2022/01/12 06:12:27;;;;;;;12.43;11.10;;;0.70;99.90;;;;;;5072510;28;20597;-62
2022/01/12 06:14:55;;;;;;;14.00;11.17;;;0.70;99.90;;;;;;5072718;28;20440;-62
2022/01/12 06:17:22;;;;;;;14.33;10.67;;;0.70;99.90;;;;;;5072097;28;20571;-62
2022/01/12 06:19:50;;;;;;;14.87;11.67;;;0.70;99.90;;;;;;5072191;28;20484;-62
2022/01/12 06:22:17;;;;;;;14.83;11.00;;;0.80;99.90;;;;;;5072337;28;20973;-62
2022/01/12 06:24:44;;;;;;;13.33;11.10;;;0.80;99.90;;;;;;5072138;28;20930;-62
2022/01/12 06:27:15;;;;;;;10.50;9.60;;;0.70;99.90;;;;;;5072386;28;20997;-62
2022/01/12 06:29:44;;;;;;;15.70;10.60;;;0.70;99.90;;;;;;5072173;28;20932;-62
2022/01/12 06:32:13;;;;;;;14.70;11.87;;;0.80;99.90;;;;;;5072356;28;20468;-62
2022/01/12 06:34:41;;;;;;;10.27;9.23;;;0.70;99.90;;;;;;5075203;28;20958;-62
2022/01/12 06:37:08;;;;;;;12.23;10.30;;;0.70;99.90;;;;;;5075473;28;20539;-62
2022/01/12 06:39:35;;;;;;;17.40;11.00;;;0.40;99.90;;;;;;5076283;28;20529;-62
2022/01/12 06:42:02;;;;;;;13.13;11.70;;;0.30;99.90;;;;;;5075379;28;20472;-62
2022/01/12 06:44:29;;;;;;;16.53;12.03;;;0.20;99.90;;;;;;5075607;28;20458;-63
2022/01/12 06:47:02;;;;;;;14.13;11.10;;;0.30;99.90;;;;;;5075583;28;20832;-62
2022/01/12 06:49:30;;;;;;;16.00;11.80;;;0.60;99.90;;;;;;5075409;28;20437;-62
2022/01/12 06:51:59;;;;;;;14.70;10.80;;;0.60;99.90;;;;;;5075399;28;20464;-62
2022/01/12 06:54:27;;;;;;;14.93;10.20;;;0.50;99.90;;;;;;5074845;28;20818;-62
2022/01/12 06:56:54;;;;;;;14.23;10.50;;;0.30;99.90;;;;;;5075349;28;20429;-62
2022/01/12 06:59:22;;;;;;;14.43;10.30;;;0.40;99.90;;;;;;5075563;28;21094;-62
2022/01/12 07:01:49;;;;;;;13.33;11.60;;;0.50;99.90;;;;;;5075475;28;20472;-62
2022/01/12 07:04:16;;;;;;;15.97;12.27;;;0.50;99.90;;;;;;5075600;28;20550;-62
2022/01/12 07:06:44;;;;;;;14.43;11.67;;;0.40;99.90;;;;;;5075472;28;20460;-62
2022/01/12 07:09:11;;;;;;;14.27;11.97;;;0.30;99.90;;;;;;5075115;28;20539;-62
2022/01/12 07:11:39;;;;;;;15.47;13.37;;;0.40;99.90;;;;;;5075080;28;20488;-62
2022/01/12 07:14:06;;;;;;;18.40;11.97;;;0.60;99.90;;;;;;5074944;28;20440;-62
2022/01/12 07:16:33;;;;;;;13.10;11.77;;;0.50;99.90;;;;;;5074924;28;20830;-62
2022/01/12 07:19:00;;;;;;;14.77;13.00;;;0.50;99.90;;;;;;5075088;28;20421;-62
2022/01/12 07:21:28;;;;;;;16.13;12.90;;;0.50;99.90;;;;;;5074929;28;20464;-62
2022/01/12 07:23:57;;;;;;;16.27;12.33;;;0.50;99.90;;;;;;5074898;28;20872;-62
2022/01/12 07:26:25;;;;;;;18.40;12.77;;;0.60;99.90;;;;;;5074983;28;20448;-62
2022/01/12 07:28:53;;;;;;;17.67;13.50;;;0.50;99.90;;;;;;5074784;28;21001;-62
2022/01/12 07:31:21;;;;;;;15.20;12.00;;;0.60;99.90;;;;;;5074637;28;20479;-62
2022/01/12 07:33:49;;;;;;;16.03;12.80;;;0.60;99.90;;;;;;5074373;28;20857;-62
2022/01/12 07:36:17;;;;;;;16.43;12.87;;;0.50;99.90;;;;;;5074878;28;20547;-62
2022/01/12 07:38:44;;;;;;;14.90;12.47;;;0.60;99.90;;;;;;5074917;28;20466;-62
2022/01/12 07:41:12;;;;;;;14.30;11.63;;;0.70;99.90;;;;;;5074625;28;20474;-62
2022/01/12 07:43:39;;;;;;;16.77;12.13;;;0.70;99.90;;;;;;5074202;28;20480;-62
2022/01/12 07:46:07;;;;;;;15.83;13.07;;;0.50;99.90;;;;;;5074321;28;20969;-62
2022/01/12 07:48:34;;;;;;;15.97;13.77;;;0.50;99.90;;;;;;5074693;28;20480;-62
2022/01/12 07:51:01;;;;;;;17.60;14.20;;;0.60;99.90;;;;;;5074112;28;20475;-62
2022/01/12 07:53:28;;;;;;;19.23;13.83;;;0.50;99.90;;;;;;5074275;28;20444;-62
2022/01/12 07:55:55;;;;;;;14.83;12.40;;;0.50;99.90;;;;;;5074114;28;20460;-62
2022/01/12 07:58:24;;;;;;;19.03;14.50;;;0.60;99.90;;;;;;5073926;28;20491;-62
2022/01/12 08:00:51;;;;;;;16.27;12.47;;;0.60;99.90;;;;;;5073722;28;20456;-62
2022/01/12 08:03:20;;;;;;;13.90;12.23;;;0.70;99.90;;;;;;5073711;28;20448;-62
2022/01/12 08:05:47;;;;;;;18.50;13.57;;;0.80;99.90;;;;;;5073819;28;20859;-62
2022/01/12 08:08:15;;;;;;;19.17;14.60;;;0.80;99.90;;;;;;5073346;28;20511;-62
2022/01/12 08:10:42;;;;;;;15.10;12.37;;;0.90;99.90;;;;;;5073235;28;20468;-62
2022/01/12 08:13:10;;;;;;;15.07;12.07;;;0.90;99.90;;;;;;5073828;28;20552;-62
2022/01/12 08:15:38;;;;;;;15.30;12.07;;;1.00;99.90;;;;;;5073667;28;20923;-62
2022/01/12 08:18:06;;;;;;;16.83;11.90;;;1.00;99.90;;;;;;5073357;28;20516;-63
2022/01/12 08:20:34;;;;;;;15.63;13.10;;;1.20;99.90;;;;;;5073989;28;20563;-62
2022/01/12 08:23:01;;;;;;;13.43;11.30;;;1.20;99.90;;;;;;5073360;28;20452;-63
2022/01/12 08:25:29;;;;;;;18.43;12.43;;;1.30;99.90;;;;;;5073154;28;20449;-61
2022/01/12 08:27:56;;;;;;;14.03;12.23;;;1.30;99.90;;;;;;5073106;28;20530;-61
2022/01/12 08:30:28;;;;;;;18.07;12.60;;;1.20;99.90;;;;;;5073292;28;20551;-62
2022/01/12 08:32:58;;;;;;;15.03;11.50;;;1.30;99.90;;;;;;5072986;28;20812;-61
2022/01/12 08:35:27;;;;;;;16.33;12.07;;;1.30;99.90;;;;;;5072817;28;20451;-62
2022/01/12 08:37:54;;;;;;;17.60;12.60;;;1.20;99.90;;;;;;5072939;28;20448;-62
2022/01/12 08:40:22;;;;;;;14.53;11.17;;;1.20;99.90;;;;;;5072927;28;20444;-62
2022/01/12 08:42:50;;;;;;;17.90;11.57;;;1.50;99.90;;;;;;5072593;28;20486;-62
2022/01/12 08:45:18;;;;;;;14.60;12.10;;;1.50;99.90;;;;;;5072799;28;20547;-62
2022/01/12 08:47:46;;;;;;;12.90;10.63;;;1.50;99.90;;;;;;5072397;28;20484;-62
2022/01/12 08:50:15;;;;;;;15.27;12.27;;;1.40;99.90;;;;;;5072614;28;20965;-61
2022/01/12 08:52:45;;;;;;;11.50;10.13;;;1.30;99.90;;;;;;5072850;28;20506;-61
2022/01/12 08:55:12;;;;;;;12.90;10.60;;;1.30;99.90;;;;;;5072253;28;20506;-62
2022/01/12 08:57:40;;;;;;;15.97;11.70;;;1.30;99.90;;;;;;5072875;28;20437;-62
2022/01/12 09:00:09;;;;;;;13.47;11.07;;;1.40;99.90;;;;;;5072604;28;20449;-62
2022/01/12 09:02:36;;;;;;;12.57;11.17;;;1.30;99.90;;;;;;5072791;28;20535;-62
2022/01/12 09:05:04;;;;;;;15.93;12.93;;;1.40;99.90;;;;;;5072812;28;20444;-62
2022/01/12 09:07:33;;;;;;;14.17;10.93;;;1.40;99.90;;;;;;5072831;28;20774;-62
2022/01/12 09:10:00;;;;;;;15.93;12.07;;;1.20;99.90;;;;;;5072924;28;20743;-62
2022/01/12 09:12:28;;;;;;;11.37;10.23;;;1.30;99.90;;;;;;5072865;28;20451;-62
2022/01/12 09:14:55;;;;;;;13.47;12.03;;;1.30;99.90;;;;;;5072483;28;20458;-62
2022/01/12 09:17:24;;;;;;;14.10;12.43;;;1.30;99.90;;;;;;5072607;28;20971;-62
2022/01/12 09:19:52;;;;;;;13.50;11.07;;;1.20;99.90;;;;;;5072660;28;20451;-62
2022/01/12 09:22:19;;;;;;;16.97;13.97;;;1.20;99.90;;;;;;5072266;28;20468;-62
2022/01/12 09:24:49;;;;;;;13.17;11.50;;;1.10;99.90;;;;;;5072491;28;20451;-62
2022/01/12 09:27:17;;;;;;;16.03;11.77;;;1.20;99.90;;;;;;5072547;28;20453;-62
2022/01/12 09:29:45;;;;;;;17.67;12.40;;;1.30;99.90;;;;;;5072667;28;20910;-62
2022/01/12 09:32:12;;;;;;;15.17;11.97;;;1.50;99.90;;;;;;5072208;28;20554;-62
2022/01/12 09:34:40;;;;;;;14.80;11.60;;;1.70;99.90;;;;;;5072281;28;20459;-62
2022/01/12 09:37:07;;;;;;;18.10;13.30;;;1.70;99.90;;;;;;5072503;28;20484;-62
2022/01/12 09:39:35;;;;;;;17.00;11.63;;;1.70;99.90;;;;;;5072532;28;20479;-62
2022/01/12 09:42:05;;;;;;;12.03;10.70;;;1.90;99.90;;;;;;5072284;28;20469;-63
2022/01/12 09:44:33;;;;;;;14.10;12.00;;;1.90;99.90;;;;;;5072017;28;20551;-62
2022/01/12 09:47:03;;;;;;;13.63;11.83;;;2.00;99.90;;;;;;5072161;28;20455;-62
2022/01/12 09:49:30;;;;;;;12.43;10.90;;;2.10;99.90;;;;;;5072078;28;20519;-62
2022/01/12 09:51:58;;;;;;;13.60;12.20;;;2.10;99.90;;;;;;5072045;28;20564;-62
2022/01/12 09:54:27;;;;;;;17.30;12.37;;;2.10;99.90;;;;;;5071781;28;20488;-62
2022/01/12 09:56:54;;;;;;;13.30;10.80;;;1.90;99.90;;;;;;5071942;28;20510;-62
2022/01/12 09:59:23;;;;;;;11.80;9.93;;;2.00;99.90;;;;;;5072023;28;20447;-62
2022/01/12 10:01:52;;;;;;;12.50;11.23;;;1.80;99.90;;;;;;5071578;28;20475;-62
2022/01/12 10:04:21;;;;;;;13.73;11.60;;;2.00;99.90;;;;;;5071846;28;20449;-62
2022/01/12 10:06:50;;;;;;;12.53;10.97;;;1.90;99.90;;;;;;5072858;28;20458;-62
2022/01/12 10:09:22;;;;;;;14.20;12.03;;;2.20;99.90;;;;;;5075811;28;20545;-62
2022/01/12 10:11:53;;;;;;;17.20;13.70;;;2.50;99.90;;;;;;5075715;28;20490;-62
2022/01/12 10:14:22;;;;;;;14.50;12.07;;;2.60;99.90;;;;;;5075726;28;20444;-62
2022/01/12 10:16:54;;;;;;;18.80;11.73;;;2.70;99.90;;;;;;5075392;28;20571;-62
2022/01/12 10:19:30;;;;;;;12.73;11.43;;;2.80;99.90;;;;;;5075333;28;20444;-62
2022/01/12 10:21:58;;;;;;;12.73;10.93;;;2.60;99.90;;;;;;5075046;28;20494;-62
2022/01/12 10:24:27;;;;;;;13.00;11.03;;;2.60;99.90;;;;;;5075459;28;20469;-62
2022/01/12 10:26:56;;;;;;;16.60;12.73;;;2.40;99.90;;;;;;5075422;28;20487;-63
2022/01/12 10:29:27;;;;;;;15.37;11.50;;;2.50;99.90;;;;;;5075212;28;20632;-63
2022/01/12 10:31:56;;;;;;;13.17;11.87;;;2.50;99.90;;;;;;5075000;28;20552;-62
2022/01/12 10:34:25;;;;;;;13.43;11.97;;;2.90;99.90;;;;;;5075294;28;20957;-63
2022/01/12 10:36:54;;;;;;;13.73;12.33;;;3.20;99.90;;;;;;5075535;28;20456;-62
2022/01/12 10:39:25;;;;;;;15.00;11.57;;;3.20;99.90;;;;;;5075594;28;20935;-62
2022/01/12 10:41:55;;;;;;;12.00;10.80;;;3.30;99.90;;;;;;5075582;28;20464;-63
2022/01/12 10:44:25;;;;;;;20.50;12.47;;;3.50;99.90;;;;;;5075250;28;20535;-62
2022/01/12 10:47:10;;;;;;;18.07;12.57;;;3.20;99.90;;;;;;5075547;28;20462;-62
2022/01/12 10:49:39;;;;;;;14.83;13.17;;;3.30;99.90;;;;;;5075010;28;20464;-62
2022/01/12 10:52:09;;;;;;;18.10;14.20;;;3.90;99.90;;;;;;5075171;28;20521;-62
2022/01/12 10:54:47;;;;;;;14.93;12.73;;;4.30;99.90;;;;;;5075415;28;20475;-62
2022/01/12 10:57:23;;;;;;;14.90;12.47;;;5.30;99.90;;;;;;5075708;28;20521;-63
2022/01/12 11:00:08;;;;;;;13.40;11.87;;;5.80;99.90;;;;;;5075410;28;20456;-63
2022/01/12 11:02:36;;;;;;;17.30;11.67;;;;;;;;;;5075366;28;20440;-63
2022/01/12 11:05:04;;;;;;;15.90;12.77;;;7.30;97.30;;;;;;5074613;28;20448;-63
2022/01/12 11:07:32;;;;;;;13.93;11.90;;;7.50;96.30;;;;;;5074566;28;20999;-63
2022/01/12 11:10:00;;;;;;;14.47;11.83;;;7.80;95.90;;;;;;5075110;28;20827;-63
2022/01/12 11:12:28;;;;;;;15.30;13.37;;;7.60;95.70;;;;;;5074931;28;20552;-62
2022/01/12 11:14:56;;;;;;;13.50;12.00;;;8.50;94.20;;;;;;5074814;28;20451;-62
2022/01/12 11:17:24;;;;;;;13.77;12.10;;;8.60;94.50;;;;;;5074731;28;20519;-64
2022/01/12 11:20:03;;;;;;;17.30;12.53;;;7.80;93.60;;;;;;5074130;28;20476;-63
2022/01/12 11:22:42;;;;;;;14.60;11.77;;;8.00;93.60;;;;;;5074710;28;20791;-62
2022/01/12 11:25:19;;;;;;;12.93;11.63;;;8.00;94.00;;;;;;5074499;28;20864;-62
2022/01/12 11:27:51;;;;;;;13.30;11.47;;;8.20;93.60;;;;;;5074278;28;20970;-62
2022/01/12 11:30:22;;;;;;;14.60;12.77;;;8.10;92.90;;;;;;5074408;28;20476;-62
2022/01/12 11:33:01;;;;;;;13.77;11.43;;;8.70;92.40;;;;;;5074497;28;20435;-62
2022/01/12 11:35:32;;;;;;;12.63;11.33;;;9.20;92.00;;;;;;5074488;28;20462;-62
2022/01/12 11:38:00;;;;;;;14.23;11.77;;;9.70;92.20;;;;;;5074605;28;20437;-61
2022/01/12 11:40:35;;;;;;;13.20;11.73;;;9.60;91.40;;;;;;5074030;28;20463;-62
2022/01/12 11:43:03;;;;;;;13.73;12.30;;;9.50;90.90;;;;;;5074324;28;20526;-62
2022/01/12 11:45:30;;;;;;;14.53;12.07;;;9.70;90.70;;;;;;5073990;28;20474;-62
2022/01/12 11:47:57;;;;;;;14.83;11.50;;;9.90;90.50;;;;;;5073663;28;20456;-62
2022/01/12 11:50:26;;;;;;;13.60;12.13;;;9.50;90.30;;;;;;5073884;28;20688;-62
2022/01/12 11:52:54;;;;;;;17.90;10.30;;;9.50;88.60;;;;;;5073506;28;20445;-62
2022/01/12 11:55:21;;;;;;;13.40;10.77;;;8.60;89.80;;;;;;5073819;28;20476;-62
2022/01/12 11:57:50;;;;;;;13.70;11.87;;;8.90;89.10;;;;;;5073472;28;20475;-61
2022/01/12 12:00:19;;;;;;;15.57;11.00;;;8.60;89.30;;;;;;5073383;28;20444;-61
2022/01/12 12:02:49;;;;;;;12.80;11.47;;;8.00;90.50;;;;;;5073280;28;21024;-61
2022/01/12 12:05:18;;;;;;;12.43;11.13;;;8.10;89.10;;;;;;5073286;28;20935;-61
2022/01/12 12:07:48;;;;;;;15.37;11.33;;;7.50;89.70;;;;;;5073839;28;20460;-61
2022/01/12 12:10:19;;;;;;;12.67;11.37;;;6.80;90.80;;;;;;5073336;28;20468;-63
2022/01/12 12:12:47;;;;;;;15.53;12.30;;;6.40;91.20;;;;;;5073248;28;20429;-61
2022/01/12 12:15:15;;;;;;;12.77;11.30;;;5.80;91.90;;;;;;5072991;28;20502;-66
2022/01/12 12:17:43;;;;;;;17.60;12.33;;;5.60;92.30;;;;;;5073273;28;20795;-61
2022/01/12 12:20:12;;;;;;;12.00;10.80;;;5.40;92.80;;;;;;5072885;28;20778;-62
2022/01/12 12:22:42;;;;;;;13.20;10.97;;;5.60;93.30;;;;;;5072889;28;20454;-62
2022/01/12 12:25:13;;;;;;;14.03;12.53;;;5.80;93.90;;;;;;5072968;28;20809;-62
2022/01/12 12:27:43;;;;;;;12.73;11.40;;;5.80;93.70;;;;;;5073074;28;20425;-65
2022/01/12 12:30:13;;;;;;;14.40;10.47;;;5.90;93.90;;;;;;5073139;28;20838;-62
2022/01/12 12:32:42;;;;;;;16.67;11.37;;;5.70;93.50;;;;;;5073177;28;20450;-63
2022/01/12 12:35:11;;;;;;;10.70;9.07;;;5.70;93.60;;;;;;5073220;28;20455;-63
2022/01/12 12:37:40;;;;;;;11.77;10.63;;;5.70;93.80;;;;;;5072882;28;20498;-62
2022/01/12 12:40:24;;;;;;;11.53;9.80;;;5.80;94.30;;;;;;5072750;28;20487;-63
2022/01/12 12:43:01;;;;;;;17.73;11.00;;;5.40;94.20;;;;;;5072773;28;20443;-63
2022/01/12 12:45:40;;;;;;;13.67;10.33;;;5.40;94.90;;;;;;5072829;28;20482;-63
2022/01/12 12:48:09;;;;;;;13.93;10.67;;;5.30;94.30;;;;;;5073031;28;20483;-63
2022/01/12 12:50:37;;;;;;;12.80;11.50;;;4.70;95.30;;;;;;5072044;28;20998;-63
2022/01/12 12:53:04;;;;;;;14.80;11.00;;;4.70;95.80;;;;;;5072080;28;20440;-62
2022/01/12 12:55:36;;;;;;;14.00;11.00;;;4.90;95.70;;;;;;5072977;28;20537;-63
2022/01/12 12:58:04;;;;;;;13.60;11.30;;;5.10;95.40;;;;;;5072979;28;20544;-62
2022/01/12 13:00:32;;;;;;;9.67;8.60;;;5.20;96.00;;;;;;5072719;28;20551;-63
2022/01/12 13:03:01;;;;;;;13.73;10.77;;;4.90;95.60;;;;;;5072385;28;20440;-62
2022/01/12 13:05:30;;;;;;;13.13;10.20;;;4.90;96.10;;;;;;5072561;28;20450;-62
2022/01/12 13:07:58;;;;;;;13.50;11.10;;;5.00;96.20;;;;;;5072703;28;20754;-63
2022/01/12 13:10:26;;;;;;;12.53;10.50;;;5.00;96.10;;;;;;5072441;28;20488;-62
2022/01/12 13:12:56;;;;;;;11.77;10.07;;;5.00;96.00;;;;;;5072681;28;20509;-63
2022/01/12 13:15:26;;;;;;;9.90;8.97;;;5.00;95.30;;;;;;5072161;28;20448;-62
2022/01/12 13:18:02;;;;;;;12.10;10.03;;;4.60;95.30;;;;;;5072389;28;20483;-63
2022/01/12 13:23:18;;;;;;;13.87;12.20;;;4.70;95.80;;;;;;5072298;28;20404;-63
2022/01/12 13:25:46;;;;;;;11.40;10.20;;;5.20;95.90;;;;;;5072515;28;20817;-63
2022/01/12 13:28:14;;;;;;;15.60;10.73;;;5.70;95.80;;;;;;5072354;28;20444;-63
2022/01/12 13:30:57;;;;;;;13.50;10.53;;;6.20;94.60;;;;;;5072285;28;20563;-63
2022/01/12 13:33:27;;;;;;;14.70;10.73;;;6.30;94.50;;;;;;5072167;28;20523;-63
2022/01/12 13:35:55;;;;;;;10.77;9.73;;;6.30;94.70;;;;;;5072349;28;20502;-62
2022/01/12 13:38:28;;;;;;;11.73;10.53;;;6.10;94.90;;;;;;5071802;28;20876;-62
2022/01/12 13:40:56;;;;;;;13.80;11.13;;;6.10;94.80;;;;;;5071775;28;20547;-61
2022/01/12 13:43:25;;;;;;;13.90;11.17;;;5.80;95.10;;;;;;5075539;28;20444;-61
2022/01/12 13:46:00;;;;;;;12.97;11.43;;;;;;;;;;5076578;28;20478;-62
2022/01/12 13:48:30;;;;;;;17.47;11.23;;;6.10;94.80;;;;;;5076360;28;20459;-62
2022/01/12 13:50:59;;;;;;;14.03;10.70;;;5.80;95.40;;;;;;5075965;28;20495;-62
2022/01/12 13:53:36;;;;;;;13.43;10.40;;;5.20;95.10;;;;;;5075735;28;20452;-61
2022/01/12 13:56:10;;;;;;;16.67;10.40;;;4.70;96.10;;;;;;5076009;28;20847;-61
2022/01/12 13:58:39;;;;;;;18.43;11.10;;;4.40;96.40;;;;;;5075873;28;20452;-62
2022/01/12 14:01:10;;;;;;;13.30;10.80;;;4.20;96.90;;;;;;5076016;28;20500;-61
2022/01/12 14:03:42;;;;;;;15.33;11.10;;;4.10;97.40;;;;;;5075736;28;20464;-62
2022/01/12 14:06:17;;;;;;;13.97;12.07;;;3.90;97.50;;;;;;5076052;28;20555;-62
2022/01/12 14:08:52;;;;;;;13.70;11.60;;;3.90;97.60;;;;;;5075580;28;20443;-62
2022/01/12 14:11:20;;;;;;;16.23;11.87;;;3.90;98.40;;;;;;5075573;28;20495;-62
2022/01/12 14:13:49;;;;;;;13.90;11.13;;;3.90;98.30;;;;;;5075528;28;20459;-61
2022/01/12 14:16:16;;;;;;;11.20;10.00;;;4.00;98.20;;;;;;5075512;28;20475;-62
2022/01/12 14:18:44;;;;;;;14.77;11.77;;;4.10;98.30;;;;;;5075480;28;20546;-62
2022/01/12 14:21:19;;;;;;;13.20;10.73;;;4.00;98.10;;;;;;5075074;28;20842;-62
2022/01/12 14:23:47;;;;;;;11.93;10.70;;;3.90;98.20;;;;;;5075129;28;20541;-62
2022/01/12 14:26:25;;;;;;;12.10;10.87;;;3.80;98.50;;;;;;5075198;28;20433;-62
2022/01/12 14:28:55;;;;;;;12.33;11.07;;;3.70;98.70;;;;;;5075602;28;20483;-63